Time;durP1;ratioP1;P1;durP2;ratioP2;P2;SDS_P1;SDS_P2;PMS_P1;PMS_P2;Temp;Humidity;BMP_temperature;BMP_pressure;BME280_temperature;BME280_humidity;BME280_pressure;Samples;Min_cycle;Max_cycle;Signal;HPM_P1;HPM_P2
2022/07/18 00:01:52;;;;;;;;;5.00;4.33;;;;;;;;5076410;28;46520;-76
2022/07/18 00:04:18;;;;;;;;;4.00;4.00;;;;;;;;5078530;28;45352;-77
2022/07/18 00:06:43;;;;;;;;;5.00;5.00;;;;;;;;5077566;28;45264;-78
2022/07/18 00:09:08;;;;;;;;;5.33;4.67;;;;;;;;5077832;28;45312;-75
2022/07/18 00:11:33;;;;;;;;;6.67;5.33;;;;;;;;5077891;28;45528;-77
2022/07/18 00:13:59;;;;;;;;;11.33;7.00;;;;;;;;5077758;28;45357;-76
2022/07/18 00:16:24;;;;;;;;;7.00;7.00;;;;;;;;5077847;28;45315;-77
2022/07/18 00:18:49;;;;;;;;;12.33;9.00;;;;;;;;5078100;28;45224;-77
2022/07/18 00:21:15;;;;;;;;;7.00;5.67;;;;;;;;5078070;28;45557;-78
2022/07/18 00:23:40;;;;;;;;;14.67;11.00;;;;;;;;5078171;28;45269;-78
2022/07/18 00:26:06;;;;;;;;;16.00;12.33;;;;;;;;5077974;28;45371;-78
2022/07/18 00:28:31;;;;;;;;;15.00;15.00;;;;;;;;5078156;28;45288;-78
2022/07/18 00:30:56;;;;;;;;;14.00;13.67;;;;;;;;5077746;28;45424;-77
2022/07/18 00:33:22;;;;;;;;;22.67;18.33;;;;;;;;5077732;28;45237;-78
2022/07/18 00:35:47;;;;;;;;;20.33;16.67;;;;;;;;5078136;28;45337;-77
2022/07/18 00:38:13;;;;;;;;;17.33;15.33;;;;;;;;5077806;28;45361;-77
2022/07/18 00:40:38;;;;;;;;;22.33;17.33;;;;;;;;5077645;28;45451;-76
2022/07/18 00:43:03;;;;;;;;;11.33;11.33;;;;;;;;5077652;28;45370;-78
2022/07/18 00:45:29;;;;;;;;;13.00;12.00;;;;;;;;5077765;28;45327;-77
2022/07/18 00:47:54;;;;;;;;;13.33;12.00;;;;;;;;5077605;28;45225;-77
2022/07/18 00:50:21;;;;;;;;;15.33;11.67;;;;;;;;5091319;27;45704;-77
2022/07/18 00:52:47;;;;;;;;;14.33;11.33;;;;;;;;5098122;27;45277;-77
2022/07/18 00:55:12;;;;;;;;;16.67;12.33;;;;;;;;5097719;27;45438;-77
2022/07/18 00:57:38;;;;;;;;;13.00;9.33;;;;;;;;5098194;27;45250;-77
2022/07/18 01:02:49;;;;;;;;;8.67;8.00;;;;;;;;5097986;27;45238;-77
2022/07/18 01:05:14;;;;;;;;;7.00;5.33;;;;;;;;5098626;27;45443;-77
2022/07/18 01:07:40;;;;;;;;;4.67;4.67;;;;;;;;5101991;27;45390;-77
2022/07/18 01:10:05;;;;;;;;;9.00;6.00;;;;;;;;5101164;27;46267;-77
2022/07/18 01:12:31;;;;;;;;;7.00;5.33;;;;;;;;5101406;27;45382;-77
2022/07/18 01:14:57;;;;;;;;;5.00;5.00;;;;;;;;5101836;27;45558;-77
2022/07/18 01:17:23;;;;;;;;;7.33;6.00;;;;;;;;5101464;27;45280;-76
2022/07/18 01:19:48;;;;;;;;;5.33;5.33;;;;;;;;5101063;27;45370;-75
2022/07/18 01:22:15;;;;;;;;;7.00;5.00;;;;;;;;5100974;27;45325;-75
2022/07/18 01:24:40;;;;;;;;;4.00;4.00;;;;;;;;5101280;27;45417;-76
2022/07/18 01:27:06;;;;;;;;;5.00;3.67;;;;;;;;5101327;27;45609;-75
2022/07/18 01:29:31;;;;;;;;;5.00;3.00;;;;;;;;5101033;27;46006;-75
2022/07/18 01:32:03;;;;;;;;;4.33;2.67;;;;;;;;5101129;27;45384;-76
2022/07/18 01:34:28;;;;;;;;;4.00;4.00;;;;;;;;5101359;27;45383;-75
2022/07/18 01:36:53;;;;;;;;;5.00;3.33;;;;;;;;5101156;27;45537;-76
2022/07/18 01:39:18;;;;;;;;;4.00;3.00;;;;;;;;5101020;27;46139;-75
2022/07/18 01:41:43;;;;;;;;;4.67;4.00;;;;;;;;5100823;27;45401;-75
2022/07/18 01:44:09;;;;;;;;;3.33;3.00;;;;;;;;5101129;27;45427;-75
2022/07/18 01:46:34;;;;;;;;;3.67;2.33;;;;;;;;5101179;27;45476;-75
2022/07/18 01:48:59;;;;;;;;;2.00;2.00;;;;;;;;5100987;27;46433;-75
2022/07/18 01:51:24;;;;;;;;;4.67;4.67;;;;;;;;5100943;27;45371;-76
2022/07/18 01:53:54;;;;;;;;;5.00;4.00;;;;;;;;5100824;27;45356;-75
2022/07/18 01:56:19;;;;;;;;;3.00;3.00;;;;;;;;5099970;27;45321;-77
2022/07/18 01:58:45;;;;;;;;;6.00;5.00;;;;;;;;5099537;27;45255;-77
2022/07/18 02:01:10;;;;;;;;;4.00;3.33;;;;;;;;5099802;27;45549;-76
2022/07/18 02:03:35;;;;;;;;;7.00;3.67;;;;;;;;5100920;27;45379;-76
2022/07/18 02:06:00;;;;;;;;;3.33;3.33;;;;;;;;5100768;27;45252;-77
2022/07/18 02:08:26;;;;;;;;;5.00;5.00;;;;;;;;5100580;27;46041;-76
2022/07/18 02:10:51;;;;;;;;;6.00;3.33;;;;;;;;5100361;27;45497;-76
2022/07/18 02:13:19;;;;;;;;;4.67;3.67;;;;;;;;5100610;27;45287;-77
2022/07/18 02:15:45;;;;;;;;;3.00;3.00;;;;;;;;5100374;27;45626;-76
2022/07/18 02:18:10;;;;;;;;;3.33;3.33;;;;;;;;5100055;27;46414;-76
2022/07/18 02:20:36;;;;;;;;;4.00;4.00;;;;;;;;5100446;27;45187;-76
2022/07/18 02:23:01;;;;;;;;;2.00;2.00;;;;;;;;5098396;27;45621;-76
2022/07/18 02:25:26;;;;;;;;;2.00;2.00;;;;;;;;5095391;27;46633;-76
2022/07/18 02:27:51;;;;;;;;;5.00;3.33;;;;;;;;5079661;28;46788;-76
2022/07/18 02:30:17;;;;;;;;;5.00;3.67;;;;;;;;5079821;28;45514;-76
2022/07/18 02:32:42;;;;;;;;;8.33;6.00;;;;;;;;5079775;28;45310;-77
2022/07/18 02:35:08;;;;;;;;;5.67;4.00;;;;;;;;5080177;28;45241;-77
2022/07/18 02:37:33;;;;;;;;;4.00;4.00;;;;;;;;5082765;27;46198;-78
2022/07/18 02:39:58;;;;;;;;;7.00;5.00;;;;;;;;5079492;28;45241;-78
2022/07/18 02:42:24;;;;;;;;;7.67;6.00;;;;;;;;5079756;28;45477;-77
2022/07/18 02:44:49;;;;;;;;;8.00;7.00;;;;;;;;5079996;28;45280;-75
2022/07/18 02:47:14;;;;;;;;;7.00;7.00;;;;;;;;5079479;28;45447;-75
2022/07/18 02:49:39;;;;;;;;;8.00;8.00;;;;;;;;5079517;28;45322;-75
2022/07/18 02:52:06;;;;;;;;;9.00;9.00;;;;;;;;5079527;28;45332;-74
2022/07/18 02:54:32;;;;;;;;;11.67;9.00;;;;;;;;5079605;28;45317;-75
2022/07/18 02:56:57;;;;;;;;;10.33;9.00;;;;;;;;5079183;28;46159;-75
2022/07/18 02:59:23;;;;;;;;;7.67;7.67;;;;;;;;5079157;28;45334;-75
2022/07/18 03:01:49;;;;;;;;;8.67;8.67;;;;;;;;5079359;28;45451;-74
2022/07/18 03:04:14;;;;;;;;;5.67;5.33;;;;;;;;5079193;28;45691;-75
2022/07/18 03:06:39;;;;;;;;;8.67;8.00;;;;;;;;5077943;28;45712;-75
2022/07/18 03:09:04;;;;;;;;;10.33;9.33;;;;;;;;5078246;28;45632;-76
2022/07/18 03:11:30;;;;;;;;;8.00;7.00;;;;;;;;5079030;28;45379;-76
2022/07/18 03:13:55;;;;;;;;;13.00;8.67;;;;;;;;5079283;28;45237;-77
2022/07/18 03:16:20;;;;;;;;;10.00;8.33;;;;;;;;5079161;28;45374;-76
2022/07/18 03:18:45;;;;;;;;;11.00;8.67;;;;;;;;5078216;28;45577;-75
2022/07/18 03:21:11;;;;;;;;;12.33;9.33;;;;;;;;5079042;28;45591;-75
2022/07/18 03:23:36;;;;;;;;;8.33;7.67;;;;;;;;5079265;28;45401;-75
2022/07/18 03:26:01;;;;;;;;;8.67;8.00;;;;;;;;5078568;28;45969;-75
2022/07/18 03:28:27;;;;;;;;;6.00;6.00;;;;;;;;5078003;28;45281;-76
2022/07/18 03:30:52;;;;;;;;;6.00;5.00;;;;;;;;5079018;28;45234;-78
2022/07/18 03:33:18;;;;;;;;;7.00;5.67;;;;;;;;5079768;28;45487;-79
2022/07/18 03:35:43;;;;;;;;;3.33;3.33;;;;;;;;5079142;28;46280;-76
2022/07/18 03:38:08;;;;;;;;;8.33;4.00;;;;;;;;5079497;28;45325;-83
2022/07/18 03:40:34;;;;;;;;;3.33;3.33;;;;;;;;5079103;28;45280;-79
2022/07/18 03:42:59;;;;;;;;;6.00;5.00;;;;;;;;5078647;28;45387;-76
2022/07/18 03:45:25;;;;;;;;;5.00;5.00;;;;;;;;5078482;28;45224;-75
2022/07/18 03:47:50;;;;;;;;;8.33;8.33;;;;;;;;5078535;28;45411;-75
2022/07/18 03:50:15;;;;;;;;;7.33;6.00;;;;;;;;5079025;28;45339;-75
2022/07/18 03:52:40;;;;;;;;;6.00;6.00;;;;;;;;5078777;28;45475;-74
2022/07/18 03:55:06;;;;;;;;;6.00;5.00;;;;;;;;5078302;28;46422;-76
2022/07/18 03:57:32;;;;;;;;;6.33;5.00;;;;;;;;5078296;28;45883;-74
2022/07/18 03:59:57;;;;;;;;;4.67;4.00;;;;;;;;5078440;28;45477;-74
2022/07/18 04:02:22;;;;;;;;;4.00;4.00;;;;;;;;5078711;28;45237;-81
2022/07/18 04:04:47;;;;;;;;;4.00;2.00;;;;;;;;5078070;28;45428;-81
2022/07/18 04:07:12;;;;;;;;;5.33;4.33;;;;;;;;5078460;28;45375;-76
2022/07/18 04:09:38;;;;;;;;;5.00;3.00;;;;;;;;5078434;28;45662;-74
2022/07/18 04:12:03;;;;;;;;;5.33;5.33;;;;;;;;5078402;28;45153;-75
2022/07/18 04:14:28;;;;;;;;;4.33;4.33;;;;;;;;5078304;28;45762;-73
2022/07/18 04:16:53;;;;;;;;;5.67;4.33;;;;;;;;5077950;28;45272;-72
2022/07/18 04:19:19;;;;;;;;;6.00;3.00;;;;;;;;5078146;28;45407;-73
2022/07/18 04:21:44;;;;;;;;;4.67;2.67;;;;;;;;5078443;28;45316;-72
2022/07/18 04:24:09;;;;;;;;;3.00;3.00;;;;;;;;5077901;28;45380;-72
2022/07/18 04:26:35;;;;;;;;;8.33;3.33;;;;;;;;5077925;28;45282;-73
2022/07/18 04:29:00;;;;;;;;;5.00;4.00;;;;;;;;5078067;28;45418;-74
2022/07/18 04:31:25;;;;;;;;;4.33;4.33;;;;;;;;5078148;28;45328;-73
2022/07/18 04:33:50;;;;;;;;;6.00;6.00;;;;;;;;5078072;28;46265;-74
2022/07/18 04:36:15;;;;;;;;;5.33;4.33;;;;;;;;5078024;28;45217;-80
2022/07/18 04:38:41;;;;;;;;;4.67;3.00;;;;;;;;5077901;28;45268;-72
2022/07/18 04:41:06;;;;;;;;;6.33;4.00;;;;;;;;5078107;28;45434;-74
2022/07/18 04:43:32;;;;;;;;;6.00;3.00;;;;;;;;5077498;28;46101;-74
2022/07/18 04:45:57;;;;;;;;;4.00;4.00;;;;;;;;5077820;28;45215;-74
2022/07/18 04:48:22;;;;;;;;;4.33;4.00;;;;;;;;5077757;28;45351;-73
2022/07/18 04:50:47;;;;;;;;;14.33;8.67;;;;;;;;5078146;28;45204;-75
2022/07/18 04:53:13;;;;;;;;;5.67;5.67;;;;;;;;5077553;28;46437;-73
2022/07/18 04:55:38;;;;;;;;;9.00;7.00;;;;;;;;5077590;28;45628;-73
2022/07/18 04:58:03;;;;;;;;;5.00;3.33;;;;;;;;5077470;28;45452;-73
2022/07/18 05:00:28;;;;;;;;;4.00;4.00;;;;;;;;5077792;28;45369;-74
2022/07/18 05:02:55;;;;;;;;;2.67;2.67;;;;;;;;5077001;28;46224;-72
2022/07/18 05:05:21;;;;;;;;;4.00;4.00;;;;;;;;5076158;28;45519;-71
2022/07/18 05:07:46;;;;;;;;;4.67;3.67;;;;;;;;5076668;28;45383;-71
2022/07/18 05:10:13;;;;;;;;;3.00;3.00;;;;;;;;5076677;28;45339;-72
2022/07/18 05:12:39;;;;;;;;;4.00;4.00;;;;;;;;5076513;28;46601;-72
2022/07/18 05:15:05;;;;;;;;;4.00;4.00;;;;;;;;5076958;28;45261;-72
2022/07/18 05:17:31;;;;;;;;;5.67;4.00;;;;;;;;5077215;28;45267;-73
2022/07/18 05:19:56;;;;;;;;;4.67;4.00;;;;;;;;5077537;28;45288;-75
2022/07/18 05:22:21;;;;;;;;;4.33;4.33;;;;;;;;5077054;28;46566;-75
2022/07/18 05:24:47;;;;;;;;;5.67;4.00;;;;;;;;5077263;28;45166;-74
2022/07/18 05:27:12;;;;;;;;;5.00;4.00;;;;;;;;5077352;28;45284;-74
2022/07/18 05:29:37;;;;;;;;;5.00;4.00;;;;;;;;5077328;28;45688;-75
2022/07/18 05:32:03;;;;;;;;;9.67;8.33;;;;;;;;5076971;28;46085;-75
2022/07/18 05:34:28;;;;;;;;;4.00;4.00;;;;;;;;5077130;28;45258;-74
2022/07/18 05:36:54;;;;;;;;;4.33;3.33;;;;;;;;5077241;28;45258;-74
2022/07/18 05:39:20;;;;;;;;;5.67;4.67;;;;;;;;5077271;28;45328;-75
2022/07/18 05:41:45;;;;;;;;;7.33;5.00;;;;;;;;5076934;28;45346;-75
2022/07/18 05:44:10;;;;;;;;;2.33;2.33;;;;;;;;5076746;28;45408;-75
2022/07/18 05:46:35;;;;;;;;;9.00;6.00;;;;;;;;5077185;28;45332;-74
2022/07/18 05:49:01;;;;;;;;;4.00;4.00;;;;;;;;5077203;28;45601;-75
2022/07/18 05:51:26;;;;;;;;;3.33;3.33;;;;;;;;5077955;28;46477;-76
2022/07/18 05:53:51;;;;;;;;;5.33;4.67;;;;;;;;5080442;28;45328;-74
2022/07/18 05:56:16;;;;;;;;;5.00;5.00;;;;;;;;5080682;28;45372;-75
2022/07/18 05:58:41;;;;;;;;;4.33;3.67;;;;;;;;5080172;28;45268;-76
2022/07/18 06:01:07;;;;;;;;;15.33;12.00;;;;;;;;5080036;28;45399;-75
2022/07/18 06:03:32;;;;;;;;;4.67;4.33;;;;;;;;5080348;28;45410;-74
2022/07/18 06:05:57;;;;;;;;;5.00;4.33;;;;;;;;5080136;28;45787;-74
2022/07/18 06:08:22;;;;;;;;;6.33;5.00;;;;;;;;5080558;28;45381;-74
2022/07/18 06:10:48;;;;;;;;;6.00;4.67;;;;;;;;5079995;28;46534;-74
2022/07/18 06:13:13;;;;;;;;;4.67;4.00;;;;;;;;5079818;28;45479;-74
2022/07/18 06:15:38;;;;;;;;;5.00;5.00;;;;;;;;5080258;28;45299;-75
2022/07/18 06:18:03;;;;;;;;;11.00;5.00;;;;;;;;5079485;28;45249;-75
2022/07/18 06:20:29;;;;;;;;;6.33;6.33;;;;;;;;5080033;28;45707;-76
2022/07/18 06:22:54;;;;;;;;;5.00;5.00;;;;;;;;5079870;28;45356;-75
2022/07/18 06:25:19;;;;;;;;;6.00;5.00;;;;;;;;5079998;28;45339;-76
2022/07/18 06:27:44;;;;;;;;;6.00;6.00;;;;;;;;5079988;28;45343;-77
2022/07/18 06:30:10;;;;;;;;;6.67;6.33;;;;;;;;5080055;28;46225;-74
2022/07/18 06:32:36;;;;;;;;;8.33;5.67;;;;;;;;5079866;28;45350;-73
2022/07/18 06:35:01;;;;;;;;;6.67;5.00;;;;;;;;5079955;28;45377;-74
2022/07/18 06:37:26;;;;;;;;;10.00;7.00;;;;;;;;5080020;28;45295;-73
2022/07/18 06:39:51;;;;;;;;;7.00;5.33;;;;;;;;5079524;28;45667;-73
2022/07/18 06:42:17;;;;;;;;;10.00;7.00;;;;;;;;5079850;28;45330;-73
2022/07/18 06:44:42;;;;;;;;;5.00;5.00;;;;;;;;5079553;28;45204;-74
2022/07/18 06:47:07;;;;;;;;;7.67;7.67;;;;;;;;5079795;28;45339;-73
2022/07/18 06:49:32;;;;;;;;;6.33;5.00;;;;;;;;5079585;28;46495;-72
2022/07/18 06:51:58;;;;;;;;;8.33;7.00;;;;;;;;5079516;28;45387;-75
2022/07/18 06:54:27;;;;;;;;;5.00;5.00;;;;;;;;5079464;28;45355;-75
2022/07/18 06:56:53;;;;;;;;;9.00;5.67;;;;;;;;5079464;28;45869;-76
2022/07/18 06:59:18;;;;;;;;;4.33;4.33;;;;;;;;5078782;28;46215;-74
2022/07/18 07:01:43;;;;;;;;;8.00;5.00;;;;;;;;5079311;28;45398;-78
2022/07/18 07:04:08;;;;;;;;;8.00;6.00;;;;;;;;5077328;28;46303;-77
2022/07/18 07:06:34;;;;;;;;;10.33;6.67;;;;;;;;5079042;28;45359;-79
2022/07/18 07:08:59;;;;;;;;;7.33;5.00;;;;;;;;5079217;28;46085;-77
2022/07/18 07:11:24;;;;;;;;;5.00;5.00;;;;;;;;5079352;28;45422;-77
2022/07/18 07:13:49;;;;;;;;;3.00;3.00;;;;;;;;5079918;28;45303;-78
2022/07/18 07:16:15;;;;;;;;;7.33;4.67;;;;;;;;5079722;28;45526;-78
2022/07/18 07:18:40;;;;;;;;;3.00;3.00;;;;;;;;5079133;28;46437;-80
2022/07/18 07:21:06;;;;;;;;;8.00;5.00;;;;;;;;5078484;28;45335;-76
2022/07/18 07:23:31;;;;;;;;;4.00;4.00;;;;;;;;5079148;28;45379;-75
2022/07/18 07:25:56;;;;;;;;;3.33;3.00;;;;;;;;5079198;28;45216;-75
2022/07/18 07:28:22;;;;;;;;;5.00;4.00;;;;;;;;5078726;28;47032;-77
2022/07/18 07:30:47;;;;;;;;;7.67;6.00;;;;;;;;5078621;28;45179;-76
2022/07/18 07:33:12;;;;;;;;;5.67;4.00;;;;;;;;5078934;28;45267;-75
2022/07/18 07:35:37;;;;;;;;;3.00;2.00;;;;;;;;5078833;28;45477;-75
2022/07/18 07:38:03;;;;;;;;;6.00;4.33;;;;;;;;5078371;28;45866;-75
2022/07/18 07:40:28;;;;;;;;;6.00;6.00;;;;;;;;5078731;28;45329;-74
2022/07/18 07:43:07;;;;;;;;;3.00;3.00;;;;;;;;5078677;28;45169;-74
2022/07/18 07:45:33;;;;;;;;;7.33;6.00;;;;;;;;5078755;28;45247;-74
2022/07/18 07:47:58;;;;;;;;;2.33;2.33;;;;;;;;5078319;28;46223;-73
2022/07/18 07:50:23;;;;;;;;;4.33;3.00;;;;;;;;5077812;28;45410;-75
2022/07/18 07:52:48;;;;;;;;;5.00;5.00;;;;;;;;5077830;28;45501;-72
2022/07/18 07:55:14;;;;;;;;;7.00;5.00;;;;;;;;5078428;28;45272;-73
2022/07/18 07:57:39;;;;;;;;;4.00;4.00;;;;;;;;5078333;28;45419;-75
2022/07/18 08:00:07;;;;;;;;;8.00;6.00;;;;;;;;5077820;28;45335;-72
2022/07/18 08:02:32;;;;;;;;;4.33;4.00;;;;;;;;5078353;28;45392;-74
2022/07/18 08:04:57;;;;;;;;;6.00;3.33;;;;;;;;5078224;28;45496;-74
2022/07/18 08:07:23;;;;;;;;;5.67;5.00;;;;;;;;5077956;28;45613;-74
2022/07/18 08:09:48;;;;;;;;;4.67;4.67;;;;;;;;5078087;28;45189;-73
2022/07/18 08:12:13;;;;;;;;;5.33;5.00;;;;;;;;5078306;28;45425;-74
2022/07/18 08:14:40;;;;;;;;;4.00;4.00;;;;;;;;5085283;27;45675;-74
2022/07/18 08:17:05;;;;;;;;;4.00;4.00;;;;;;;;5077337;28;47238;-74
2022/07/18 08:19:31;;;;;;;;;4.00;4.00;;;;;;;;5077862;28;45414;-75
2022/07/18 08:21:56;;;;;;;;;6.00;4.00;;;;;;;;5078133;28;45365;-75
2022/07/18 08:24:21;;;;;;;;;5.00;5.00;;;;;;;;5078426;28;45552;-76
2022/07/18 08:26:46;;;;;;;;;6.33;4.00;;;;;;;;5077699;28;47501;-78
2022/07/18 08:29:12;;;;;;;;;5.33;4.00;;;;;;;;5077159;28;45430;-79
2022/07/18 08:31:37;;;;;;;;;4.33;3.33;;;;;;;;5077779;28;45291;-75
2022/07/18 08:34:02;;;;;;;;;5.33;5.00;;;;;;;;5078023;28;45291;-76
2022/07/18 08:36:27;;;;;;;;;4.00;4.00;;;;;;;;5077618;28;46587;-76
2022/07/18 08:38:52;;;;;;;;;5.00;5.00;;;;;;;;5077572;28;45523;-76
2022/07/18 08:41:18;;;;;;;;;5.33;5.33;;;;;;;;5077933;28;45435;-76
2022/07/18 08:43:44;;;;;;;;;4.00;3.00;;;;;;;;5077943;28;45536;-77
2022/07/18 08:46:10;;;;;;;;;5.67;5.33;;;;;;;;5077571;28;46374;-75
2022/07/18 08:48:36;;;;;;;;;4.00;4.00;;;;;;;;5077498;28;45361;-75
2022/07/18 08:51:01;;;;;;;;;5.67;4.00;;;;;;;;5077675;28;45431;-76
2022/07/18 08:53:26;;;;;;;;;6.67;4.00;;;;;;;;5077866;28;45330;-74
2022/07/18 08:55:52;;;;;;;;;6.00;4.00;;;;;;;;5077386;28;46152;-76
2022/07/18 08:58:17;;;;;;;;;6.33;5.00;;;;;;;;5077628;28;45233;-75
2022/07/18 09:00:43;;;;;;;;;6.33;5.00;;;;;;;;5077307;28;45454;-76
2022/07/18 09:03:08;;;;;;;;;4.33;4.33;;;;;;;;5077903;28;45332;-76
2022/07/18 09:05:33;;;;;;;;;5.00;5.00;;;;;;;;5077108;28;47099;-76
2022/07/18 09:08:12;;;;;;;;;6.00;5.00;;;;;;;;5076055;28;45537;-75
2022/07/18 09:10:41;;;;;;;;;6.00;5.00;;;;;;;;5076588;28;45450;-77
2022/07/18 09:13:07;;;;;;;;;7.00;4.67;;;;;;;;5076694;28;45346;-75
2022/07/18 09:15:32;;;;;;;;;4.00;4.00;;;;;;;;5075309;28;46450;-77
2022/07/18 09:17:57;;;;;;;;;2.00;2.00;;;;;;;;5076081;28;45270;-76
2022/07/18 09:20:23;;;;;;;;;5.33;4.33;;;;;;;;5077185;28;45440;-77
2022/07/18 09:22:48;;;;;;;;;5.00;3.67;;;;;;;;5077541;28;45260;-77
2022/07/18 09:25:19;;;;;;;;;4.00;3.00;;;;;;;;5077198;28;45359;-76
2022/07/18 09:27:48;;;;;;;;;3.00;3.00;;;;;;;;5080309;28;45258;-75
2022/07/18 09:30:16;;;;;;;;;4.00;3.00;;;;;;;;5080461;28;45500;-79
2022/07/18 09:32:44;;;;;;;;;3.67;3.67;;;;;;;;5080947;28;45427;-77
2022/07/18 09:35:11;;;;;;;;;5.33;2.67;;;;;;;;5083553;27;45380;-77
2022/07/18 09:37:36;;;;;;;;;13.33;12.33;;;;;;;;5079708;28;45398;-75
2022/07/18 09:40:18;;;;;;;;;3.33;3.33;;;;;;;;5080378;28;45807;-74
2022/07/18 09:42:48;;;;;;;;;5.67;3.00;;;;;;;;5080756;28;45508;-74
2022/07/18 09:45:13;;;;;;;;;6.00;6.00;;;;;;;;5080025;28;46546;-74
2022/07/18 09:47:51;;;;;;;;;4.00;3.00;;;;;;;;5077225;28;45842;-77
2022/07/18 09:50:27;;;;;;;;;4.67;4.00;;;;;;;;5080100;28;45530;-77
2022/07/18 09:52:56;;;;;;;;;7.67;6.67;;;;;;;;5079671;28;45362;-74
2022/07/18 09:55:22;;;;;;;;;2.00;2.00;;;;;;;;5079920;28;46147;-76
2022/07/18 09:57:56;;;;;;;;;3.67;3.67;;;;;;;;5079636;28;45320;-72
2022/07/18 10:00:21;;;;;;;;;3.00;2.33;;;;;;;;5080030;28;45374;-77
2022/07/18 10:02:47;;;;;;;;;2.33;2.33;;;;;;;;5080646;28;45415;-74
2022/07/18 10:05:13;;;;;;;;;2.00;2.00;;;;;;;;5079789;28;46423;-72
2022/07/18 10:07:38;;;;;;;;;2.00;2.00;;;;;;;;5080162;28;45345;-74
2022/07/18 10:10:04;;;;;;;;;3.00;0.25;;;;;;;;5061240;28;45322;-79
2022/07/18 10:12:30;;;;;;;;;3.25;3.00;;;;;;;;5078031;28;45360;-75
2022/07/18 10:14:56;;;;;;;;;2.00;1.25;;;;;;;;5078002;28;46325;-78
2022/07/18 10:17:23;;;;;;;;;2.00;2.00;;;;;;;;5079780;27;45453;-74
2022/07/18 10:19:48;;;;;;;;;2.25;2.25;;;;;;;;5078278;27;45507;-75
2022/07/18 10:22:14;;;;;;;;;3.00;1.25;;;;;;;;5079481;27;45379;-74
2022/07/18 10:24:40;;;;;;;;;2.50;2.50;;;;;;;;5079482;28;46317;-76
2022/07/18 10:27:19;;;;;;;;;3.75;2.25;;;;;;;;5079651;28;45389;-71
2022/07/18 10:30:03;;;;;;;;;1.00;1.00;;;;;;;;5079400;27;45275;-72
2022/07/18 10:32:33;;;;;;;;;1.50;1.50;;;;;;;;5079232;28;45292;-76
2022/07/18 10:34:58;;;;;;;;;1.50;1.50;;;;;;;;5079283;28;46265;-72
2022/07/18 10:37:24;;;;;;;;;1.00;1.00;;;;;;;;5079544;28;45349;-72
2022/07/18 10:39:50;;;;;;;;;2.25;1.00;;;;;;;;5079369;28;45382;-72
2022/07/18 10:42:18;;;;;;;;;2.25;1.75;;;;;;;;5079517;28;45364;-72
2022/07/18 10:44:44;;;;;;;;;3.75;3.75;;;;;;;;5079340;28;47580;-71
2022/07/18 10:47:09;;;;;;;;;2.25;2.25;;;;;;;;5079128;28;45238;-77
2022/07/18 10:49:47;;;;;;;;;3.25;3.25;;;;;;;;5079515;28;45288;-80
2022/07/18 10:52:24;;;;;;;;;2.75;2.75;;;;;;;;5079620;28;45441;-84
2022/07/18 10:55:05;;;;;;;;;2.00;2.00;;;;;;;;5078953;28;47422;-77
2022/07/18 10:57:38;;;;;;;;;3.25;2.00;;;;;;;;5079076;28;45329;-79
2022/07/18 11:00:13;;;;;;;;;2.00;2.00;;;;;;;;5079013;28;45316;-80
2022/07/18 11:03:02;;;;;;;;;2.00;2.00;;;;;;;;5079469;28;45168;-76
2022/07/18 11:05:27;;;;;;;;;3.25;2.00;;;;;;;;5078622;28;47664;-78
2022/07/18 11:07:59;;;;;;;;;1.75;1.75;;;;;;;;5079100;28;45337;-79
2022/07/18 11:10:54;;;;;;;;;2.25;2.25;;;;;;;;5078905;28;45668;-82
2022/07/18 11:13:22;;;;;;;;;3.25;1.75;;;;;;;;5079144;28;45418;-76
2022/07/18 11:16:09;;;;;;;;;1.75;1.00;;;;;;;;5078982;28;46259;-77
2022/07/18 11:18:40;;;;;;;;;3.00;3.00;;;;;;;;5071341;28;45495;-78
2022/07/18 11:21:34;;;;;;;;;2.00;2.00;;;;;;;;5079032;28;45272;-77
2022/07/18 11:23:59;;;;;;;;;2.25;2.25;;;;;;;;5033733;28;45588;-74
2022/07/18 11:26:25;;;;;;;;;3.00;3.00;;;;;;;;5035140;28;45355;-76
2022/07/18 11:28:58;;;;;;;;;2.00;2.00;;;;;;;;5035666;28;45432;-74
2022/07/18 11:31:23;;;;;;;;;2.00;2.00;;;;;;;;5035900;28;45498;-75
2022/07/18 11:33:49;;;;;;;;;2.50;1.75;;;;;;;;5035898;28;45400;-74
2022/07/18 11:36:15;;;;;;;;;2.00;2.00;;;;;;;;5035948;28;46142;-78
2022/07/18 11:38:46;;;;;;;;;2.00;2.00;;;;;;;;5035384;28;45345;-75
2022/07/18 11:41:11;;;;;;;;;2.50;1.50;;;;;;;;5035376;28;45427;-75
2022/07/18 11:43:37;;;;;;;;;3.00;3.00;;;;;;;;5036032;28;45485;-77
2022/07/18 11:46:03;;;;;;;;;6.75;3.25;;;;;;;;5035554;28;45510;-74
2022/07/18 11:48:29;;;;;;;;;3.25;3.25;;;;;;;;5034729;28;45469;-75
2022/07/18 11:50:54;;;;;;;;;3.50;3.50;;;;;;;;5035546;28;45366;-75
2022/07/18 11:53:20;;;;;;;;;3.00;3.00;;;;;;;;5035800;28;45414;-76
2022/07/18 11:55:45;;;;;;;;;5.25;4.75;;;;;;;;5035539;28;46605;-74
2022/07/18 11:58:12;;;;;;;;;4.75;4.75;;;;;;;;5035378;28;45476;-74
2022/07/18 12:00:37;;;;;;;;;5.25;5.00;;;;;;;;5060197;28;45997;-76
2022/07/18 12:03:04;;;;;;;;;4.00;4.00;;;;;;;;5078039;28;45434;-75
2022/07/18 12:05:33;;;;;;;;;4.50;4.00;;;;;;;;5077826;28;45602;-74
2022/07/18 12:07:59;;;;;;;;;3.75;3.75;;;;;;;;5078195;28;45331;-71
2022/07/18 12:10:24;;;;;;;;;6.50;4.00;;;;;;;;5078003;28;45323;-73
2022/07/18 12:12:49;;;;;;;;;3.75;3.75;;;;;;;;5078275;28;45344;-74
2022/07/18 12:15:15;;;;;;;;;6.00;4.25;;;;;;;;5078255;28;46786;-76
2022/07/18 12:17:44;;;;;;;;;5.00;4.00;;;;;;;;5077303;28;45362;-73
2022/07/18 12:20:11;;;;;;;;;4.25;4.25;;;;;;;;5078112;28;45717;-72
2022/07/18 12:22:36;;;;;;;;;6.75;5.00;;;;;;;;5078296;28;45287;-71
2022/07/18 12:25:01;;;;;;;;;5.67;3.33;;;;;;;;5077563;28;45978;-76
2022/07/18 12:27:30;;;;;;;;;8.00;4.67;;;;;;;;5078169;28;45341;-75
2022/07/18 12:30:07;;;;;;;;;8.50;8.50;;;;;;;;5078010;28;45589;-76
2022/07/18 12:32:35;;;;;;;;;4.67;4.67;;;;;;;;5077685;28;45518;-75
2022/07/18 12:35:03;;;;;;;;;4.00;4.00;;;;;;;;5077705;28;45342;-74
2022/07/18 12:37:32;;;;;;;;;6.00;4.00;;;;;;;;5077705;28;45162;-74
2022/07/18 12:39:58;;;;;;;;;7.00;5.00;;;;;;;;5077702;28;45326;-76
2022/07/18 12:42:27;;;;;;;;;4.00;4.00;;;;;;;;5077002;28;45423;-74
2022/07/18 12:44:52;;;;;;;;;3.33;3.33;;;;;;;;5076594;28;47260;-76
2022/07/18 12:47:17;;;;;;;;;6.67;4.67;;;;;;;;5076841;28;45463;-76
2022/07/18 12:49:42;;;;;;;;;5.75;4.00;;;;;;;;5077308;28;45354;-74
2022/07/18 12:52:08;;;;;;;;;7.67;4.67;;;;;;;;5077432;28;45501;-73
2022/07/18 12:54:33;;;;;;;;;3.00;3.00;;;;;;;;5075937;28;46710;-74
2022/07/18 12:56:58;;;;;;;;;4.67;4.67;;;;;;;;5076576;28;45371;-75
2022/07/18 12:59:23;;;;;;;;;3.67;3.67;;;;;;;;5076363;28;45398;-75
2022/07/18 13:01:49;;;;;;;;;6.67;5.00;;;;;;;;5078239;28;45536;-76
2022/07/18 13:04:14;;;;;;;;;4.00;3.67;;;;;;;;5079457;28;46329;-76
2022/07/18 13:06:39;;;;;;;;;5.67;4.67;;;;;;;;5080119;28;45228;-73
2022/07/18 13:09:05;;;;;;;;;4.33;4.33;;;;;;;;5080108;28;45300;-73
2022/07/18 13:11:31;;;;;;;;;4.00;4.00;;;;;;;;5080407;28;45553;-75
2022/07/18 13:13:56;;;;;;;;;4.33;4.33;;;;;;;;5079655;28;46311;-75
2022/07/18 13:16:22;;;;;;;;;3.33;3.33;;;;;;;;5079633;28;45426;-75
2022/07/18 13:18:47;;;;;;;;;5.00;5.00;;;;;;;;5079707;28;45775;-78
2022/07/18 13:21:12;;;;;;;;;5.00;3.67;;;;;;;;5080406;28;45591;-78
2022/07/18 13:23:38;;;;;;;;;2.33;2.33;;;;;;;;5080224;28;46388;-76
2022/07/18 13:26:03;;;;;;;;;5.00;4.00;;;;;;;;5080218;28;45559;-78
2022/07/18 13:28:28;;;;;;;;;6.00;4.00;;;;;;;;5080355;28;45374;-75
2022/07/18 13:30:54;;;;;;;;;4.00;4.00;;;;;;;;5080667;28;45437;-76
2022/07/18 13:33:19;;;;;;;;;5.00;5.00;;;;;;;;5079766;28;46542;-75
2022/07/18 13:35:44;;;;;;;;;7.00;7.00;;;;;;;;5080236;28;45340;-77
2022/07/18 13:38:10;;;;;;;;;3.67;3.67;;;;;;;;5080258;28;45273;-76
2022/07/18 13:40:35;;;;;;;;;4.00;3.00;;;;;;;;5080179;28;45503;-74
2022/07/18 13:43:00;;;;;;;;;6.00;4.67;;;;;;;;5080067;28;45456;-76
2022/07/18 13:45:25;;;;;;;;;4.00;4.00;;;;;;;;5079869;28;45408;-74
2022/07/18 13:47:51;;;;;;;;;6.25;4.75;;;;;;;;5079957;28;45664;-76
2022/07/18 13:50:16;;;;;;;;;5.00;5.00;;;;;;;;5080077;28;45395;-75
2022/07/18 13:52:42;;;;;;;;;5.33;4.00;;;;;;;;5079748;28;45445;-74
2022/07/18 13:55:08;;;;;;;;;4.00;4.00;;;;;;;;5079971;28;45391;-74
2022/07/18 13:57:34;;;;;;;;;4.67;3.00;;;;;;;;5079802;28;45332;-74
2022/07/18 13:59:59;;;;;;;;;5.67;4.67;;;;;;;;5079814;28;45457;-74
2022/07/18 14:02:24;;;;;;;;;3.67;3.67;;;;;;;;5079573;28;46187;-75
2022/07/18 14:04:50;;;;;;;;;4.33;4.33;;;;;;;;5079269;28;45487;-74
2022/07/18 14:07:17;;;;;;;;;4.00;4.00;;;;;;;;5079963;28;45410;-74
2022/07/18 14:09:45;;;;;;;;;4.50;4.50;;;;;;;;5077938;28;45417;-68
2022/07/18 14:12:10;;;;;;;;;3.67;3.67;;;;;;;;5076637;28;45508;-70
2022/07/18 14:14:36;;;;;;;;;4.67;3.67;;;;;;;;5079266;28;45382;-70
2022/07/18 14:17:01;;;;;;;;;3.00;3.00;;;;;;;;5079278;28;45296;-69
2022/07/18 14:19:26;;;;;;;;;4.00;4.00;;;;;;;;5079182;28;45292;-69
2022/07/18 14:21:51;;;;;;;;;5.00;4.00;;;;;;;;5078782;28;46094;-69
2022/07/18 14:24:17;;;;;;;;;4.00;4.00;;;;;;;;5079201;28;45402;-69
2022/07/18 14:26:42;;;;;;;;;4.33;4.33;;;;;;;;5078889;28;45449;-70
2022/07/18 14:29:07;;;;;;;;;5.00;4.00;;;;;;;;5079221;28;45653;-68
2022/07/18 14:31:32;;;;;;;;;2.67;2.67;;;;;;;;5078976;28;46588;-69
2022/07/18 14:33:58;;;;;;;;;5.67;5.67;;;;;;;;5078631;28;45323;-69
2022/07/18 14:36:23;;;;;;;;;5.33;4.00;;;;;;;;5079535;28;45351;-71
2022/07/18 14:38:48;;;;;;;;;4.67;4.00;;;;;;;;5079490;28;45170;-76